sensor_id;sensor_type;location;lat;lon;timestamp;pressure;altitude;pressure_sealevel;temperature;humidity
18678;BME280;9469;51.114;13.914;2023-10-09T00:01:30;99388.00;;;10.12;100.00
18678;BME280;9469;51.114;13.914;2023-10-09T00:06:36;99385.06;;;10.13;100.00
18678;BME280;9469;51.114;13.914;2023-10-09T00:11:44;99385.47;;;10.25;100.00
18678;BME280;9469;51.114;13.914;2023-10-09T00:16:50;99367.69;;;10.21;100.00
18678;BME280;9469;51.114;13.914;2023-10-09T00:22:03;99380.56;;;10.37;100.00
18678;BME280;9469;51.114;13.914;2023-10-09T00:27:17;99348.19;;;10.30;100.00
18678;BME280;9469;51.114;13.914;2023-10-09T00:32:25;99309.91;;;10.31;100.00
18678;BME280;9469;51.114;13.914;2023-10-09T00:37:35;99326.91;;;10.30;100.00
18678;BME280;9469;51.114;13.914;2023-10-09T00:42:44;99283.78;;;10.57;100.00
18678;BME280;9469;51.114;13.914;2023-10-09T00:47:51;99255.06;;;10.54;100.00
18678;BME280;9469;51.114;13.914;2023-10-09T00:53:02;99248.03;;;10.44;100.00
18678;BME280;9469;51.114;13.914;2023-10-09T00:58:18;99229.59;;;10.29;100.00
18678;BME280;9469;51.114;13.914;2023-10-09T01:03:26;99249.13;;;10.62;100.00
18678;BME280;9469;51.114;13.914;2023-10-09T01:08:40;99267.34;;;10.73;100.00
18678;BME280;9469;51.114;13.914;2023-10-09T01:14:00;99265.81;;;10.86;100.00
18678;BME280;9469;51.114;13.914;2023-10-09T01:19:14;99279.19;;;10.81;100.00
18678;BME280;9469;51.114;13.914;2023-10-09T01:24:29;99270.06;;;10.68;100.00
18678;BME280;9469;51.114;13.914;2023-10-09T01:29:38;99261.13;;;10.59;100.00
18678;BME280;9469;51.114;13.914;2023-10-09T01:34:44;99232.28;;;10.48;100.00
18678;BME280;9469;51.114;13.914;2023-10-09T01:39:56;99227.72;;;10.53;100.00
18678;BME280;9469;51.114;13.914;2023-10-09T01:45:17;99210.94;;;10.34;100.00
18678;BME280;9469;51.114;13.914;2023-10-09T01:50:33;99207.81;;;10.27;100.00
18678;BME280;9469;51.114;13.914;2023-10-09T01:55:42;99201.78;;;10.22;100.00
18678;BME280;9469;51.114;13.914;2023-10-09T02:00:48;99188.59;;;10.35;100.00
18678;BME280;9469;51.114;13.914;2023-10-09T02:05:57;99174.41;;;10.21;100.00
18678;BME280;9469;51.114;13.914;2023-10-09T02:11:08;99161.63;;;10.23;100.00
18678;BME280;9469;51.114;13.914;2023-10-09T02:16:17;99129.94;;;10.27;100.00
18678;BME280;9469;51.114;13.914;2023-10-09T02:21:30;99129.94;;;10.27;100.00
18678;BME280;9469;51.114;13.914;2023-10-09T02:26:45;99127.63;;;10.20;100.00
18678;BME280;9469;51.114;13.914;2023-10-09T02:32:03;99113.19;;;10.26;100.00
18678;BME280;9469;51.114;13.914;2023-10-09T02:37:16;99088.78;;;10.24;100.00
18678;BME280;9469;51.114;13.914;2023-10-09T02:42:28;99085.63;;;10.22;100.00
18678;BME280;9469;51.114;13.914;2023-10-09T02:47:34;99069.13;;;10.20;100.00
18678;BME280;9469;51.114;13.914;2023-10-09T02:52:43;99064.47;;;10.12;100.00
18678;BME280;9469;51.114;13.914;2023-10-09T02:57:52;99056.38;;;10.22;100.00
18678;BME280;9469;51.114;13.914;2023-10-09T03:03:07;99007.50;;;10.18;100.00
18678;BME280;9469;51.114;13.914;2023-10-09T03:08:13;98999.19;;;10.38;100.00
18678;BME280;9469;51.114;13.914;2023-10-09T03:13:24;99000.41;;;10.46;100.00
18678;BME280;9469;51.114;13.914;2023-10-09T03:18:31;98972.84;;;10.55;100.00
18678;BME280;9469;51.114;13.914;2023-10-09T03:23:37;98961.34;;;10.73;100.00
18678;BME280;9469;51.114;13.914;2023-10-09T03:28:46;98932.47;;;10.67;100.00
18678;BME280;9469;51.114;13.914;2023-10-09T03:33:55;98910.19;;;10.76;100.00
18678;BME280;9469;51.114;13.914;2023-10-09T03:39:02;98911.28;;;10.75;100.00
18678;BME280;9469;51.114;13.914;2023-10-09T03:44:29;98929.50;;;10.82;100.00
18678;BME280;9469;51.114;13.914;2023-10-09T03:49:36;98935.91;;;10.81;100.00
18678;BME280;9469;51.114;13.914;2023-10-09T03:54:44;98955.81;;;10.97;100.00
18678;BME280;9469;51.114;13.914;2023-10-09T03:59:58;98942.31;;;10.80;100.00
18678;BME280;9469;51.114;13.914;2023-10-09T04:05:13;98943.78;;;10.72;100.00
18678;BME280;9469;51.114;13.914;2023-10-09T04:10:20;98935.41;;;10.79;100.00
18678;BME280;9469;51.114;13.914;2023-10-09T04:15:49;98940.63;;;10.57;100.00
18678;BME280;9469;51.114;13.914;2023-10-09T04:20:56;98928.03;;;10.76;100.00
18678;BME280;9469;51.114;13.914;2023-10-09T04:26:13;98954.22;;;10.55;100.00
18678;BME280;9469;51.114;13.914;2023-10-09T04:31:23;98951.84;;;10.67;100.00
18678;BME280;9469;51.114;13.914;2023-10-09T04:36:34;98951.78;;;11.00;100.00
18678;BME280;9469;51.114;13.914;2023-10-09T04:41:49;98933.84;;;10.78;100.00
18678;BME280;9469;51.114;13.914;2023-10-09T04:47:20;98901.03;;;10.82;100.00
18678;BME280;9469;51.114;13.914;2023-10-09T04:52:28;98884.69;;;10.75;100.00
18678;BME280;9469;51.114;13.914;2023-10-09T04:57:46;98879.81;;;10.37;100.00
18678;BME280;9469;51.114;13.914;2023-10-09T05:03:07;98864.28;;;10.44;100.00
18678;BME280;9469;51.114;13.914;2023-10-09T05:08:15;98866.44;;;10.69;100.00
18678;BME280;9469;51.114;13.914;2023-10-09T05:13:24;98868.22;;;10.46;100.00
18678;BME280;9469;51.114;13.914;2023-10-09T05:18:48;98851.16;;;10.74;100.00
18678;BME280;9469;51.114;13.914;2023-10-09T05:24:03;98836.94;;;10.93;100.00
18678;BME280;9469;51.114;13.914;2023-10-09T05:29:25;98822.25;;;10.95;100.00
18678;BME280;9469;51.114;13.914;2023-10-09T05:34:54;98790.66;;;10.80;100.00
18678;BME280;9469;51.114;13.914;2023-10-09T05:40:18;98818.00;;;11.08;100.00
18678;BME280;9469;51.114;13.914;2023-10-09T05:45:33;98816.41;;;11.07;100.00
18678;BME280;9469;51.114;13.914;2023-10-09T05:51:03;98825.25;;;11.16;100.00
18678;BME280;9469;51.114;13.914;2023-10-09T05:56:33;98845.44;;;11.30;100.00
18678;BME280;9469;51.114;13.914;2023-10-09T06:01:51;98843.50;;;11.44;100.00
18678;BME280;9469;51.114;13.914;2023-10-09T06:07:12;98811.00;;;11.56;100.00
18678;BME280;9469;51.114;13.914;2023-10-09T06:12:25;98833.16;;;11.87;100.00
18678;BME280;9469;51.114;13.914;2023-10-09T06:17:57;98815.50;;;11.91;100.00
18678;BME280;9469;51.114;13.914;2023-10-09T06:23:29;98827.59;;;11.97;100.00
18678;BME280;9469;51.114;13.914;2023-10-09T06:28:49;98816.03;;;12.10;100.00
18678;BME280;9469;51.114;13.914;2023-10-09T06:34:15;98816.56;;;12.21;100.00
18678;BME280;9469;51.114;13.914;2023-10-09T06:39:22;98827.44;;;12.33;100.00
18678;BME280;9469;51.114;13.914;2023-10-09T06:44:41;98826.69;;;12.41;100.00
18678;BME280;9469;51.114;13.914;2023-10-09T06:49:59;98814.81;;;12.56;100.00
18678;BME280;9469;51.114;13.914;2023-10-09T06:55:20;98825.69;;;12.68;100.00
18678;BME280;9469;51.114;13.914;2023-10-09T07:00:44;98824.44;;;12.74;100.00
18678;BME280;9469;51.114;13.914;2023-10-09T07:06:14;98838.56;;;12.83;100.00
18678;BME280;9469;51.114;13.914;2023-10-09T07:11:39;98847.25;;;12.97;100.00
18678;BME280;9469;51.114;13.914;2023-10-09T07:17:08;98857.47;;;12.95;100.00
18678;BME280;9469;51.114;13.914;2023-10-09T07:22:26;98864.19;;;12.92;100.00
18678;BME280;9469;51.114;13.914;2023-10-09T07:27:45;98868.59;;;12.97;100.00
18678;BME280;9469;51.114;13.914;2023-10-09T07:32:53;98859.34;;;13.03;100.00
18678;BME280;9469;51.114;13.914;2023-10-09T07:38:06;98855.72;;;12.99;100.00
18678;BME280;9469;51.114;13.914;2023-10-09T07:43:14;98862.34;;;13.02;100.00
18678;BME280;9469;51.114;13.914;2023-10-09T07:48:20;98873.00;;;13.02;100.00
18678;BME280;9469;51.114;13.914;2023-10-09T07:53:28;98879.59;;;12.95;100.00
18678;BME280;9469;51.114;13.914;2023-10-09T07:58:50;98877.94;;;13.25;100.00
18678;BME280;9469;51.114;13.914;2023-10-09T08:03:55;98889.41;;;13.09;100.00
18678;BME280;9469;51.114;13.914;2023-10-09T08:09:10;98891.59;;;13.07;100.00
18678;BME280;9469;51.114;13.914;2023-10-09T08:14:46;98885.34;;;13.28;100.00
18678;BME280;9469;51.114;13.914;2023-10-09T08:20:06;98891.28;;;13.25;100.00
18678;BME280;9469;51.114;13.914;2023-10-09T08:25:23;98898.69;;;13.28;100.00
18678;BME280;9469;51.114;13.914;2023-10-09T08:30:37;98895.66;;;13.04;100.00
18678;BME280;9469;51.114;13.914;2023-10-09T08:35:56;98901.81;;;13.13;100.00
18678;BME280;9469;51.114;13.914;2023-10-09T08:41:12;98893.34;;;13.28;100.00
18678;BME280;9469;51.114;13.914;2023-10-09T08:46:28;98891.31;;;13.34;100.00
18678;BME280;9469;51.114;13.914;2023-10-09T08:51:36;98906.22;;;13.26;100.00
18678;BME280;9469;51.114;13.914;2023-10-09T08:56:46;98917.25;;;13.33;100.00
18678;BME280;9469;51.114;13.914;2023-10-09T09:01:59;98904.03;;;13.11;100.00
18678;BME280;9469;51.114;13.914;2023-10-09T09:07:25;98890.22;;;13.26;100.00
18678;BME280;9469;51.114;13.914;2023-10-09T09:12:40;98890.34;;;13.21;100.00
18678;BME280;9469;51.114;13.914;2023-10-09T09:18:08;98904.97;;;13.32;100.00
18678;BME280;9469;51.114;13.914;2023-10-09T09:23:22;98907.63;;;13.15;100.00
18678;BME280;9469;51.114;13.914;2023-10-09T09:28:28;98905.28;;;13.22;100.00
18678;BME280;9469;51.114;13.914;2023-10-09T09:33:44;98913.63;;;13.29;100.00
18678;BME280;9469;51.114;13.914;2023-10-09T09:38:57;98910.50;;;13.27;100.00
18678;BME280;9469;51.114;13.914;2023-10-09T09:44:06;98892.09;;;13.34;100.00
18678;BME280;9469;51.114;13.914;2023-10-09T09:49:22;98888.81;;;13.54;100.00
18678;BME280;9469;51.114;13.914;2023-10-09T09:54:33;98899.19;;;13.56;100.00
18678;BME280;9469;51.114;13.914;2023-10-09T09:59:45;98900.75;;;13.57;100.00
18678;BME280;9469;51.114;13.914;2023-10-09T10:05:02;98877.34;;;13.54;100.00
18678;BME280;9469;51.114;13.914;2023-10-09T10:10:35;98876.72;;;13.65;100.00
18678;BME280;9469;51.114;13.914;2023-10-09T10:16:15;98890.06;;;13.74;100.00
18678;BME280;9469;51.114;13.914;2023-10-09T10:21:29;98895.25;;;13.79;100.00
18678;BME280;9469;51.114;13.914;2023-10-09T10:27:18;98897.59;;;13.81;100.00
18678;BME280;9469;51.114;13.914;2023-10-09T10:32:54;98908.28;;;13.89;100.00
18678;BME280;9469;51.114;13.914;2023-10-09T10:38:22;98912.72;;;13.77;100.00
18678;BME280;9469;51.114;13.914;2023-10-09T10:43:28;98884.72;;;13.74;100.00
18678;BME280;9469;51.114;13.914;2023-10-09T10:48:52;98887.38;;;13.83;100.00
18678;BME280;9469;51.114;13.914;2023-10-09T10:54:08;98893.81;;;13.90;100.00
18678;BME280;9469;51.114;13.914;2023-10-09T10:59:36;98873.22;;;13.82;100.00
18678;BME280;9469;51.114;13.914;2023-10-09T11:04:48;98879.19;;;13.88;100.00
18678;BME280;9469;51.114;13.914;2023-10-09T11:10:02;98877.31;;;13.97;100.00
18678;BME280;9469;51.114;13.914;2023-10-09T11:15:30;98855.28;;;14.00;100.00
18678;BME280;9469;51.114;13.914;2023-10-09T11:20:39;98861.53;;;14.12;100.00
18678;BME280;9469;51.114;13.914;2023-10-09T11:26:03;98849.94;;;14.00;100.00
18678;BME280;9469;51.114;13.914;2023-10-09T11:31:23;98845.34;;;14.00;100.00
18678;BME280;9469;51.114;13.914;2023-10-09T11:36:40;98844.34;;;14.22;100.00
18678;BME280;9469;51.114;13.914;2023-10-09T11:42:04;98845.81;;;14.02;100.00
18678;BME280;9469;51.114;13.914;2023-10-09T11:47:34;98864.38;;;13.99;100.00
18678;BME280;9469;51.114;13.914;2023-10-09T11:52:56;98845.81;;;14.11;100.00
18678;BME280;9469;51.114;13.914;2023-10-09T11:58:26;98839.28;;;14.38;100.00
18678;BME280;9469;51.114;13.914;2023-10-09T12:03:46;98834.84;;;14.42;100.00
18678;BME280;9469;51.114;13.914;2023-10-09T12:08:56;98846.53;;;14.37;100.00
18678;BME280;9469;51.114;13.914;2023-10-09T12:14:24;98839.25;;;14.46;100.00
18678;BME280;9469;51.114;13.914;2023-10-09T12:19:42;98841.47;;;14.44;100.00
18678;BME280;9469;51.114;13.914;2023-10-09T12:25:09;98840.53;;;14.40;100.00
18678;BME280;9469;51.114;13.914;2023-10-09T12:36:31;98838.19;;;14.30;100.00
18678;BME280;9469;51.114;13.914;2023-10-09T12:41:58;98837.69;;;14.36;100.00
18678;BME280;9469;51.114;13.914;2023-10-09T12:47:11;98846.69;;;14.32;100.00
18678;BME280;9469;51.114;13.914;2023-10-09T12:52:32;98844.81;;;14.32;100.00
18678;BME280;9469;51.114;13.914;2023-10-09T12:57:53;98843.97;;;14.41;100.00
18678;BME280;9469;51.114;13.914;2023-10-09T13:03:36;98846.06;;;14.35;100.00
18678;BME280;9469;51.114;13.914;2023-10-09T13:09:03;98837.69;;;14.36;100.00
18678;BME280;9469;51.114;13.914;2023-10-09T13:14:34;98845.91;;;14.23;100.00
18678;BME280;9469;51.114;13.914;2023-10-09T13:20:02;98845.88;;;14.40;100.00
18678;BME280;9469;51.114;13.914;2023-10-09T13:25:23;98841.66;;;14.30;100.00
18678;BME280;9469;51.114;13.914;2023-10-09T13:30:43;98840.25;;;14.33;100.00
18678;BME280;9469;51.114;13.914;2023-10-09T13:35:52;98839.06;;;14.51;100.00
18678;BME280;9469;51.114;13.914;2023-10-09T13:41:17;98839.19;;;14.55;100.00
18678;BME280;9469;51.114;13.914;2023-10-09T13:46:45;98843.47;;;14.85;100.00
18678;BME280;9469;51.114;13.914;2023-10-09T13:52:30;98831.59;;;14.65;100.00
18678;BME280;9469;51.114;13.914;2023-10-09T13:58:11;98838.09;;;14.56;100.00
18678;BME280;9469;51.114;13.914;2023-10-09T14:03:52;98820.63;;;14.58;100.00
18678;BME280;9469;51.114;13.914;2023-10-09T14:10:08;98840.44;;;14.57;100.00
18678;BME280;9469;51.114;13.914;2023-10-09T14:15:46;98834.06;;;14.79;100.00
18678;BME280;9469;51.114;13.914;2023-10-09T14:21:20;98827.91;;;14.78;100.00
18678;BME280;9469;51.114;13.914;2023-10-09T14:26:30;98827.97;;;14.70;100.00
18678;BME280;9469;51.114;13.914;2023-10-09T14:31:42;98827.31;;;14.93;100.00
18678;BME280;9469;51.114;13.914;2023-10-09T14:37:04;98822.25;;;15.00;100.00
18678;BME280;9469;51.114;13.914;2023-10-09T14:42:19;98837.59;;;14.91;100.00
18678;BME280;9469;51.114;13.914;2023-10-09T14:47:36;98844.59;;;14.75;100.00
18678;BME280;9469;51.114;13.914;2023-10-09T14:52:42;98836.00;;;14.70;100.00
18678;BME280;9469;51.114;13.914;2023-10-09T14:57:53;98821.63;;;14.74;100.00
18678;BME280;9469;51.114;13.914;2023-10-09T15:03:03;98817.00;;;14.54;100.00
18678;BME280;9469;51.114;13.914;2023-10-09T15:08:15;98850.34;;;14.94;100.00
18678;BME280;9469;51.114;13.914;2023-10-09T15:13:23;98827.00;;;14.74;100.00
18678;BME280;9469;51.114;13.914;2023-10-09T15:18:44;98835.28;;;14.81;100.00
18678;BME280;9469;51.114;13.914;2023-10-09T15:24:07;98840.91;;;14.88;100.00
18678;BME280;9469;51.114;13.914;2023-10-09T15:29:21;98853.13;;;14.98;100.00
18678;BME280;9469;51.114;13.914;2023-10-09T15:34:37;98858.44;;;14.77;100.00
18678;BME280;9469;51.114;13.914;2023-10-09T15:39:47;98855.09;;;14.89;100.00
18678;BME280;9469;51.114;13.914;2023-10-09T15:44:57;98849.31;;;14.78;100.00
18678;BME280;9469;51.114;13.914;2023-10-09T15:50:09;98872.84;;;14.64;100.00
18678;BME280;9469;51.114;13.914;2023-10-09T15:55:17;98876.44;;;14.68;100.00
18678;BME280;9469;51.114;13.914;2023-10-09T16:00:27;98876.22;;;14.82;100.00
18678;BME280;9469;51.114;13.914;2023-10-09T16:05:38;98861.47;;;14.76;100.00
18678;BME280;9469;51.114;13.914;2023-10-09T16:10:45;98866.44;;;14.86;100.00
18678;BME280;9469;51.114;13.914;2023-10-09T16:15:55;98876.56;;;15.30;100.00
18678;BME280;9469;51.114;13.914;2023-10-09T16:21:07;98885.72;;;15.29;100.00
18678;BME280;9469;51.114;13.914;2023-10-09T16:26:15;98871.06;;;15.06;100.00
18678;BME280;9469;51.114;13.914;2023-10-09T16:31:22;98890.22;;;15.17;100.00
18678;BME280;9469;51.114;13.914;2023-10-09T16:36:35;98888.38;;;15.08;100.00
18678;BME280;9469;51.114;13.914;2023-10-09T16:41:41;98879.81;;;15.36;100.00
18678;BME280;9469;51.114;13.914;2023-10-09T16:46:49;98884.94;;;15.29;100.00
18678;BME280;9469;51.114;13.914;2023-10-09T16:51:59;98894.47;;;15.38;100.00
18678;BME280;9469;51.114;13.914;2023-10-09T16:57:10;98902.81;;;15.45;100.00
18678;BME280;9469;51.114;13.914;2023-10-09T17:02:16;98915.97;;;15.59;100.00
18678;BME280;9469;51.114;13.914;2023-10-09T17:07:28;98905.00;;;15.23;100.00
18678;BME280;9469;51.114;13.914;2023-10-09T17:12:38;98918.03;;;15.33;100.00
18678;BME280;9469;51.114;13.914;2023-10-09T17:17:46;98893.94;;;15.03;100.00
18678;BME280;9469;51.114;13.914;2023-10-09T17:22:57;98908.59;;;14.97;100.00
18678;BME280;9469;51.114;13.914;2023-10-09T17:28:03;98893.81;;;15.21;100.00
18678;BME280;9469;51.114;13.914;2023-10-09T17:33:09;98902.50;;;15.18;100.00
18678;BME280;9469;51.114;13.914;2023-10-09T17:38:18;98907.22;;;15.41;100.00
18678;BME280;9469;51.114;13.914;2023-10-09T17:43:27;98908.72;;;15.30;100.00
18678;BME280;9469;51.114;13.914;2023-10-09T17:48:34;98906.75;;;15.19;100.00
18678;BME280;9469;51.114;13.914;2023-10-09T17:53:42;98901.13;;;15.12;100.00
18678;BME280;9469;51.114;13.914;2023-10-09T17:58:51;98903.81;;;15.12;100.00
18678;BME280;9469;51.114;13.914;2023-10-09T18:04:02;98919.41;;;15.09;100.00
18678;BME280;9469;51.114;13.914;2023-10-09T18:09:12;98899.38;;;14.86;100.00
18678;BME280;9469;51.114;13.914;2023-10-09T18:14:20;98916.09;;;15.13;100.00
18678;BME280;9469;51.114;13.914;2023-10-09T18:19:29;98914.78;;;15.19;100.00
18678;BME280;9469;51.114;13.914;2023-10-09T18:24:39;98916.91;;;15.04;100.00
18678;BME280;9469;51.114;13.914;2023-10-09T18:29:47;98928.97;;;15.19;100.00
18678;BME280;9469;51.114;13.914;2023-10-09T18:34:54;98918.56;;;15.18;100.00
18678;BME280;9469;51.114;13.914;2023-10-09T18:40:06;98908.78;;;15.22;100.00
18678;BME280;9469;51.114;13.914;2023-10-09T18:45:16;98896.28;;;15.55;100.00
18678;BME280;9469;51.114;13.914;2023-10-09T18:50:24;98915.16;;;15.38;100.00
18678;BME280;9469;51.114;13.914;2023-10-09T18:55:37;98914.47;;;15.41;100.00
18678;BME280;9469;51.114;13.914;2023-10-09T19:00:44;98909.53;;;15.31;100.00
18678;BME280;9469;51.114;13.914;2023-10-09T19:06:07;98925.66;;;15.43;100.00
18678;BME280;9469;51.114;13.914;2023-10-09T19:11:28;98903.19;;;15.56;100.00
18678;BME280;9469;51.114;13.914;2023-10-09T19:16:41;98913.47;;;15.54;100.00
18678;BME280;9469;51.114;13.914;2023-10-09T19:21:47;98907.19;;;15.50;100.00
18678;BME280;9469;51.114;13.914;2023-10-09T19:27:01;98901.09;;;15.41;100.00
18678;BME280;9469;51.114;13.914;2023-10-09T19:32:07;98895.41;;;15.63;100.00
18678;BME280;9469;51.114;13.914;2023-10-09T19:37:20;98898.53;;;15.65;100.00
18678;BME280;9469;51.114;13.914;2023-10-09T19:42:28;98914.06;;;15.59;100.00
18678;BME280;9469;51.114;13.914;2023-10-09T19:47:36;98895.56;;;15.46;100.00
18678;BME280;9469;51.114;13.914;2023-10-09T19:52:43;98911.47;;;15.51;100.00
18678;BME280;9469;51.114;13.914;2023-10-09T19:57:57;98920.59;;;15.70;100.00
18678;BME280;9469;51.114;13.914;2023-10-09T20:03:04;98925.50;;;15.48;100.00
18678;BME280;9469;51.114;13.914;2023-10-09T20:08:10;98930.16;;;15.59;100.00
18678;BME280;9469;51.114;13.914;2023-10-09T20:13:21;98928.38;;;15.63;100.00
18678;BME280;9469;51.114;13.914;2023-10-09T20:18:27;98923.53;;;15.57;100.00
18678;BME280;9469;51.114;13.914;2023-10-09T20:23:33;98941.53;;;15.56;100.00
18678;BME280;9469;51.114;13.914;2023-10-09T20:28:43;98941.44;;;15.65;100.00
18678;BME280;9469;51.114;13.914;2023-10-09T20:33:51;98938.84;;;15.56;100.00
18678;BME280;9469;51.114;13.914;2023-10-09T20:38:59;98952.19;;;15.65;100.00
18678;BME280;9469;51.114;13.914;2023-10-09T20:44:15;98936.44;;;15.63;100.00
18678;BME280;9469;51.114;13.914;2023-10-09T20:49:21;98945.72;;;15.66;100.00
18678;BME280;9469;51.114;13.914;2023-10-09T20:54:29;98961.00;;;15.65;100.00
18678;BME280;9469;51.114;13.914;2023-10-09T20:59:38;98968.78;;;15.58;100.00
18678;BME280;9469;51.114;13.914;2023-10-09T21:04:46;98984.53;;;15.89;100.00
18678;BME280;9469;51.114;13.914;2023-10-09T21:09:55;98968.69;;;15.96;100.00
18678;BME280;9469;51.114;13.914;2023-10-09T21:15:06;98970.25;;;15.76;100.00
18678;BME280;9469;51.114;13.914;2023-10-09T21:20:17;98984.38;;;15.86;100.00
18678;BME280;9469;51.114;13.914;2023-10-09T21:25:26;98976.84;;;15.58;100.00
18678;BME280;9469;51.114;13.914;2023-10-09T21:30:37;98982.66;;;15.81;100.00
18678;BME280;9469;51.114;13.914;2023-10-09T21:35:43;98988.09;;;15.72;100.00
18678;BME280;9469;51.114;13.914;2023-10-09T21:40:48;98986.84;;;15.70;100.00
18678;BME280;9469;51.114;13.914;2023-10-09T21:46:00;99000.94;;;15.67;100.00
18678;BME280;9469;51.114;13.914;2023-10-09T21:51:07;99008.94;;;15.96;100.00
18678;BME280;9469;51.114;13.914;2023-10-09T21:56:14;98999.28;;;15.74;100.00
18678;BME280;9469;51.114;13.914;2023-10-09T22:01:25;99003.38;;;15.81;100.00
18678;BME280;9469;51.114;13.914;2023-10-09T22:06:35;99006.09;;;15.93;100.00
18678;BME280;9469;51.114;13.914;2023-10-09T22:11:42;99013.84;;;15.94;100.00
18678;BME280;9469;51.114;13.914;2023-10-09T22:16:50;98999.44;;;15.78;100.00
18678;BME280;9469;51.114;13.914;2023-10-09T22:21:57;98993.00;;;15.70;100.00
18678;BME280;9469;51.114;13.914;2023-10-09T22:27:03;98994.00;;;15.66;100.00
18678;BME280;9469;51.114;13.914;2023-10-09T22:32:20;99006.88;;;15.93;100.00
18678;BME280;9469;51.114;13.914;2023-10-09T22:37:30;99017.75;;;15.97;100.00
18678;BME280;9469;51.114;13.914;2023-10-09T22:42:39;99018.19;;;16.19;100.00
18678;BME280;9469;51.114;13.914;2023-10-09T22:47:50;99024.16;;;16.04;100.00
18678;BME280;9469;51.114;13.914;2023-10-09T22:53:01;99013.50;;;15.96;100.00
18678;BME280;9469;51.114;13.914;2023-10-09T22:58:14;99018.53;;;15.97;100.00
18678;BME280;9469;51.114;13.914;2023-10-09T23:03:30;99024.56;;;15.94;100.00
18678;BME280;9469;51.114;13.914;2023-10-09T23:08:42;99008.84;;;15.84;100.00
18678;BME280;9469;51.114;13.914;2023-10-09T23:13:57;99020.31;;;15.93;100.00
18678;BME280;9469;51.114;13.914;2023-10-09T23:19:20;99031.81;;;15.73;100.00
18678;BME280;9469;51.114;13.914;2023-10-09T23:24:43;99039.44;;;15.83;100.00
18678;BME280;9469;51.114;13.914;2023-10-09T23:29:55;99033.25;;;15.91;100.00
18678;BME280;9469;51.114;13.914;2023-10-09T23:35:11;99039.44;;;15.83;100.00
18678;BME280;9469;51.114;13.914;2023-10-09T23:40:21;99050.53;;;15.82;100.00
18678;BME280;9469;51.114;13.914;2023-10-09T23:45:41;99057.78;;;15.81;100.00
18678;BME280;9469;51.114;13.914;2023-10-09T23:50:51;99047.50;;;15.83;100.00
18678;BME280;9469;51.114;13.914;2023-10-09T23:55:58;99042.91;;;15.63;100.00
